Mason, OH

1:50 PM EST on January 30, 2015 (GMT -0500)
Sinclair Courseview Campus | Change Station
CLOSE
Current Station
Personal Weather Station
Location: Mason, OH
Elevation: 783 ft
Nearby Weather Stations

Elev 783 ft 39.35 °N, 84.27 °W | Updated 3 seconds ago

Overcast
Overcast
27.3 °F
Feels Like 18 °F
N
10.0
Wind Variable Wind from North
Gusts 11.0 mph

Today
High -- | Low -- °F
--% Chance of Precip.
Yesterday
High -- | Low -- °F
Precip. -- in
7:46 AM 5:54 PM
Waxing Gibbous, 84% visible
Pressure 30.50 in
Visibility 9.0 miles
Clouds Mostly Cloudy 3700 ft
Windchill 18 °F
Dew Point 14 °F
Humidity 56%
Rainfall 0.00 in
Snow Depth Not available.
UV 2.4 out of 12
Pollen .10 out of 12
Air Quality Not available.
Flu Activity Not available.
METAR KHAO 301753Z AUTO 34011KT 9SM -SN BKN037 M02/M10 A3048 RMK AO2 SLP328 P0000 60000 T10221100 11011 21033 50007

More Conditions Fewer Conditions

Pressure 30.50 in
Visibility 9.0 miles
Clouds Mostly Cloudy 3700 ft
Windchill 18 °F
Dew Point 14 °F
Humidity 56%
Rainfall 0.00 in
Snow Depth Not available.
UV 2.4 out of 12
Pollen .10 out of 12
Air Quality Not available.
Flu Activity Not available.
METAR KHAO 301753Z AUTO 34011KT 9SM -SN BKN037 M02/M10 A3048 RMK AO2 SLP328 P0000 60000 T10221100 11011 21033 50007

More Conditions Fewer Conditions

10-Day Weather Forecast

Almanac

Astronomy

Jan. 30, 2015 Rise Set
Actual Time
Civil Twilight
Nautical Twilight
Astronomical Twilight
Moon
Length of Visible Light
Length of Day
Tomorrow will be .
, % of the Moon is Illuminated

Today's Extremes

State Highs State Lows

Community

WunderPhotos

Upload Photos

1,791,859 photos uploaded!

WunderBlogs® & News

Nearby

Air Quality

  Air Quality AQ Index Pollutant
Not available.

Snow Depth

Station Depth Elevation

Earthquake Activity

City Distance Mag. Time & Date
Minimum magnitude displayed is 2.5.

Coastal Water Temperatures

Place Temperature

Nearby Weather Stations